Time;durP1;ratioP1;P1;durP2;ratioP2;P2;SDS_P1;SDS_P2;PMS_P1;PMS_P2;Temp;Humidity;BMP_temperature;BMP_pressure;BME280_temperature;BME280_humidity;BME280_pressure;Samples;Min_cycle;Max_cycle;Signal;HPM_P1;HPM_P2
2022/10/01 00:00:54;;;;;;;30.30;18.08;;;10.80;99.90;;;;;;5072972;28;20033;-67
2022/10/01 00:03:22;;;;;;;25.27;20.20;;;10.90;99.90;;;;;;5073052;28;20020;-68
2022/10/01 00:06:03;;;;;;;27.98;18.85;;;10.90;99.90;;;;;;5072577;28;20032;-67
2022/10/01 00:08:29;;;;;;;24.08;18.45;;;10.90;99.90;;;;;;5074832;28;20016;-67
2022/10/01 00:10:55;;;;;;;23.83;18.15;;;10.90;99.90;;;;;;5076281;28;20047;-67
2022/10/01 00:13:21;;;;;;;23.65;18.08;;;10.90;99.90;;;;;;5076233;28;20476;-67
2022/10/01 00:15:47;;;;;;;27.35;17.55;;;10.90;99.90;;;;;;5075658;28;20032;-67
2022/10/01 00:18:13;;;;;;;22.30;17.98;;;11.00;99.90;;;;;;5076355;28;20044;-67
2022/10/01 00:20:42;;;;;;;24.77;17.15;;;10.90;99.90;;;;;;5076348;28;20024;-68
2022/10/01 00:23:09;;;;;;;25.95;17.80;;;10.90;99.90;;;;;;5076320;28;20025;-68
2022/10/01 00:25:35;;;;;;;30.77;18.02;;;11.00;99.90;;;;;;5076246;28;20384;-68
2022/10/01 00:28:01;;;;;;;21.25;16.98;;;11.00;99.90;;;;;;5075459;28;20035;-67
2022/10/01 00:30:26;;;;;;;30.60;18.67;;;11.00;99.90;;;;;;5075959;28;20047;-68
2022/10/01 00:32:53;;;;;;;24.65;16.63;;;11.00;99.90;;;;;;5071889;28;20029;-67
2022/10/01 00:35:21;;;;;;;22.38;16.25;;;10.90;99.90;;;;;;5076047;28;20078;-68
2022/10/01 00:37:49;;;;;;;26.48;17.10;;;10.90;99.90;;;;;;5075773;28;20028;-68
2022/10/01 00:40:14;;;;;;;31.83;15.95;;;10.90;99.90;;;;;;5075422;28;20052;-67
2022/10/01 00:42:40;;;;;;;22.40;15.65;;;11.00;99.90;;;;;;5075984;28;20047;-68
2022/10/01 00:45:06;;;;;;;26.90;16.08;;;11.00;99.90;;;;;;5075612;28;20020;-68
2022/10/01 00:47:36;;;;;;;27.63;16.88;;;11.00;99.90;;;;;;5073452;28;20016;-68
2022/10/01 00:50:18;;;;;;;21.77;14.55;;;11.00;99.90;;;;;;5064209;28;20040;-68
2022/10/01 00:52:50;;;;;;;33.25;15.68;;;11.00;99.90;;;;;;5075763;28;20113;-68
2022/10/01 00:55:22;;;;;;;23.42;15.75;;;11.00;99.90;;;;;;5075692;28;20016;-68
2022/10/01 00:57:49;;;;;;;26.02;14.73;;;11.10;99.90;;;;;;5075755;28;20017;-68
2022/10/01 01:00:15;;;;;;;21.80;14.00;;;11.10;99.90;;;;;;5058152;28;20013;-68
2022/10/01 01:02:41;;;;;;;24.05;14.65;;;11.20;99.90;;;;;;5055631;28;20030;-68
2022/10/01 01:05:12;;;;;;;27.10;14.13;;;11.20;99.90;;;;;;5055144;28;20392;-68
2022/10/01 01:07:39;;;;;;;21.50;15.13;;;11.10;99.90;;;;;;5059692;28;20031;-68
2022/10/01 01:10:06;;;;;;;20.63;14.02;;;11.10;99.90;;;;;;5075195;28;20142;-68
2022/10/01 01:12:50;;;;;;;20.48;13.13;;;11.10;99.90;;;;;;5068250;28;20025;-68
2022/10/01 01:15:32;;;;;;;20.50;13.02;;;11.10;99.90;;;;;;5075030;28;20396;-68
2022/10/01 01:18:01;;;;;;;21.33;13.00;;;11.10;99.90;;;;;;5075234;28;20043;-68
2022/10/01 01:20:44;;;;;;;20.83;13.23;;;11.00;99.90;;;;;;5073746;28;20029;-68
2022/10/01 01:23:15;;;;;;;17.65;11.75;;;11.10;99.90;;;;;;5074982;28;20012;-67
2022/10/01 01:25:56;;;;;;;18.45;11.85;;;11.10;99.90;;;;;;5074990;28;20024;-67
2022/10/01 01:28:43;;;;;;;19.95;11.63;;;11.20;99.90;;;;;;5074404;28;20028;-67
2022/10/01 01:31:17;;;;;;;23.58;12.07;;;11.20;99.90;;;;;;5075100;28;20161;-67
2022/10/01 01:33:46;;;;;;;22.65;10.90;;;11.20;99.90;;;;;;5075131;28;20052;-67
2022/10/01 01:36:17;;;;;;;15.20;9.93;;;11.10;99.90;;;;;;5074072;28;20025;-67
2022/10/01 01:38:53;;;;;;;23.90;11.70;;;11.10;99.90;;;;;;5074946;28;20032;-67
2022/10/01 01:41:22;;;;;;;18.27;10.45;;;11.10;99.90;;;;;;5074761;28;20052;-66
2022/10/01 01:43:52;;;;;;;14.43;11.02;;;11.10;99.90;;;;;;5074528;28;20021;-66
2022/10/01 01:46:18;;;;;;;13.65;9.63;;;11.10;99.90;;;;;;5074668;28;20361;-67
2022/10/01 01:48:46;;;;;;;17.23;9.60;;;11.10;99.90;;;;;;5074191;28;20028;-67
2022/10/01 01:51:32;;;;;;;15.43;10.40;;;11.10;99.90;;;;;;5074627;28;20033;-67
2022/10/01 01:53:58;;;;;;;16.17;9.82;;;11.10;99.90;;;;;;5074413;28;20107;-67
2022/10/01 01:56:25;;;;;;;15.45;9.32;;;11.10;99.90;;;;;;5075299;28;20024;-67
2022/10/01 01:58:52;;;;;;;20.60;8.75;;;11.20;99.90;;;;;;5074212;28;20024;-68
2022/10/01 02:01:50;;;;;;;13.75;10.85;;;11.10;99.90;;;;;;5074088;28;20020;-68
2022/10/01 02:04:43;;;;;;;12.93;8.75;;;11.20;99.90;;;;;;5029538;28;20068;-68
2022/10/01 02:07:24;;;;;;;18.95;9.63;;;11.10;99.90;;;;;;5074122;28;20103;-67
2022/10/01 02:09:56;;;;;;;21.60;8.80;;;11.10;99.90;;;;;;5074290;28;20131;-67
2022/10/01 02:13:03;;;;;;;14.52;8.88;;;11.00;99.90;;;;;;5073830;28;20028;-67
2022/10/01 02:15:58;;;;;;;14.30;8.75;;;11.00;99.90;;;;;;5073730;28;20056;-67
2022/10/01 02:19:00;;;;;;;11.50;8.38;;;11.10;99.90;;;;;;5074179;28;20411;-68
2022/10/01 02:21:55;;;;;;;17.17;8.68;;;11.10;99.90;;;;;;5073528;28;20020;-67
2022/10/01 02:24:34;;;;;;;12.80;7.80;;;11.00;99.90;;;;;;5073339;28;20478;-67
2022/10/01 02:27:05;;;;;;;14.18;8.85;;;11.10;99.90;;;;;;5073873;28;20048;-67
2022/10/01 02:29:32;;;;;;;15.98;9.05;;;11.10;99.90;;;;;;5073447;28;20020;-67
2022/10/01 02:31:58;;;;;;;12.85;7.50;;;11.10;99.90;;;;;;5073620;28;20029;-67
2022/10/01 02:34:28;;;;;;;10.73;7.65;;;11.10;99.90;;;;;;5074067;28;20033;-67
2022/10/01 02:36:55;;;;;;;9.98;7.80;;;11.10;99.90;;;;;;5073361;28;20504;-67
2022/10/01 02:39:26;;;;;;;11.15;8.35;;;11.10;99.90;;;;;;5073901;28;20027;-68
2022/10/01 02:41:54;;;;;;;16.30;8.32;;;11.10;99.90;;;;;;5074081;28;20025;-66
2022/10/01 02:44:29;;;;;;;12.23;8.15;;;11.10;99.90;;;;;;5073462;28;20533;-66
2022/10/01 02:47:05;;;;;;;11.43;7.60;;;11.00;99.90;;;;;;5071780;28;20074;-67
2022/10/01 02:49:30;;;;;;;10.90;7.50;;;11.00;99.90;;;;;;5073804;28;20016;-67
2022/10/01 02:52:14;;;;;;;14.60;8.43;;;11.00;99.90;;;;;;5073453;28;20046;-67
2022/10/01 02:54:59;;;;;;;14.50;8.32;;;10.90;99.90;;;;;;5072979;28;20074;-67
2022/10/01 02:57:26;;;;;;;15.48;8.85;;;10.90;99.90;;;;;;5073405;28;20036;-67
2022/10/01 02:59:56;;;;;;;12.90;8.70;;;10.90;99.90;;;;;;5073592;28;20032;-67
2022/10/01 03:02:26;;;;;;;13.07;9.15;;;10.90;99.90;;;;;;5073195;28;20051;-68
2022/10/01 03:04:52;;;;;;;13.15;9.35;;;10.90;99.90;;;;;;5103613;22;20027;-69
2022/10/01 03:07:17;;;;;;;15.40;9.07;;;10.90;99.90;;;;;;5033452;28;20022;-69
2022/10/01 03:09:43;;;;;;;16.48;9.85;;;10.80;99.90;;;;;;5033572;28;20022;-69
2022/10/01 03:12:09;;;;;;;19.50;9.77;;;10.80;99.90;;;;;;5032771;28;20061;-69
2022/10/01 03:14:35;;;;;;;19.48;9.10;;;10.80;99.90;;;;;;5015563;28;20033;-69
2022/10/01 03:17:01;;;;;;;16.45;10.05;;;10.80;99.90;;;;;;5033507;28;20515;-69
2022/10/01 03:19:27;;;;;;;14.52;8.93;;;10.80;99.90;;;;;;5033793;28;20060;-69
2022/10/01 03:21:52;;;;;;;15.95;9.23;;;10.80;99.90;;;;;;5034418;28;20030;-69
2022/10/01 03:24:18;;;;;;;12.10;8.73;;;10.80;99.90;;;;;;5033948;28;20381;-69
2022/10/01 03:26:44;;;;;;;24.13;9.10;;;10.70;99.90;;;;;;5033199;28;20076;-69
2022/10/01 03:29:10;;;;;;;14.35;9.70;;;10.70;99.90;;;;;;5033386;28;20022;-69
2022/10/01 03:31:36;;;;;;;21.15;9.80;;;10.60;99.90;;;;;;5033215;28;20056;-69
2022/10/01 03:34:02;;;;;;;17.55;10.30;;;10.60;99.90;;;;;;5021915;28;20492;-68
2022/10/01 03:36:28;;;;;;;16.65;10.20;;;10.60;99.90;;;;;;5013428;28;20033;-68
2022/10/01 03:38:54;;;;;;;17.05;10.05;;;10.60;99.90;;;;;;5013047;28;20033;-69
2022/10/01 03:41:20;;;;;;;13.45;10.25;;;10.60;99.90;;;;;;5013281;28;20084;-69
2022/10/01 03:43:45;;;;;;;14.00;10.00;;;10.60;99.90;;;;;;5016589;28;20022;-69
2022/10/01 03:46:11;;;;;;;17.05;10.23;;;10.60;99.90;;;;;;5017053;28;20390;-69
2022/10/01 03:48:37;;;;;;;23.52;10.95;;;10.50;99.90;;;;;;5016538;28;20363;-69
2022/10/01 03:51:03;;;;;;;18.73;10.57;;;10.50;99.90;;;;;;5015830;28;20371;-68
2022/10/01 03:53:30;;;;;;;16.52;11.20;;;10.50;99.90;;;;;;5016979;28;20504;-68
2022/10/01 03:55:56;;;;;;;17.23;10.98;;;10.50;99.90;;;;;;5016883;28;20026;-68
2022/10/01 03:58:22;;;;;;;15.73;11.93;;;10.40;99.90;;;;;;5017149;28;20033;-68
2022/10/01 04:00:48;;;;;;;17.60;10.70;;;10.40;99.90;;;;;;5016290;28;20025;-68
2022/10/01 04:03:15;;;;;;;14.25;10.65;;;10.40;99.90;;;;;;5016831;28;20022;-68
2022/10/01 04:05:42;;;;;;;17.77;11.82;;;10.40;99.90;;;;;;5016696;28;20486;-69
2022/10/01 04:08:08;;;;;;;21.83;11.77;;;10.30;99.90;;;;;;5017032;28;20026;-68
2022/10/01 04:10:33;;;;;;;22.73;11.27;;;10.30;99.90;;;;;;5016716;28;20022;-69
2022/10/01 04:12:59;;;;;;;19.52;11.88;;;10.30;99.90;;;;;;5016606;28;20022;-69
2022/10/01 04:15:25;;;;;;;16.95;12.57;;;10.30;99.90;;;;;;5016791;28;20172;-69
2022/10/01 04:17:51;;;;;;;20.73;12.52;;;10.20;99.90;;;;;;5016994;28;20101;-69
2022/10/01 04:20:17;;;;;;;19.83;12.43;;;10.20;99.90;;;;;;5016650;28;20030;-69
2022/10/01 04:22:43;;;;;;;16.58;12.00;;;10.20;99.90;;;;;;5017057;28;20454;-69
2022/10/01 04:25:09;;;;;;;18.58;13.18;;;10.20;99.90;;;;;;5015828;28;20022;-69
2022/10/01 04:27:36;;;;;;;24.75;12.88;;;10.20;99.90;;;;;;5016853;28;20022;-69
2022/10/01 04:30:01;;;;;;;22.90;13.63;;;10.10;99.90;;;;;;5016379;28;20071;-69
2022/10/01 04:32:27;;;;;;;21.35;14.13;;;10.10;99.90;;;;;;5016334;28;20474;-69
2022/10/01 04:34:53;;;;;;;22.67;14.13;;;10.10;99.90;;;;;;5015872;28;20022;-69
2022/10/01 04:37:19;;;;;;;19.33;14.05;;;10.10;99.90;;;;;;5016330;28;20363;-69
2022/10/01 04:39:45;;;;;;;21.15;13.48;;;10.10;99.90;;;;;;5016362;28;20061;-69
2022/10/01 04:42:12;;;;;;;20.02;14.38;;;10.10;99.90;;;;;;5016322;28;20064;-69
2022/10/01 04:44:38;;;;;;;19.88;13.73;;;10.00;99.90;;;;;;5015985;28;20018;-69
2022/10/01 04:47:03;;;;;;;17.15;13.27;;;10.00;99.90;;;;;;5015587;28;20083;-69
2022/10/01 04:49:31;;;;;;;19.98;14.15;;;10.00;99.90;;;;;;5016056;28;20022;-69
2022/10/01 04:51:57;;;;;;;23.20;14.27;;;10.00;99.90;;;;;;5031292;28;20026;-69
2022/10/01 04:54:22;;;;;;;19.73;14.38;;;10.00;99.90;;;;;;5015786;28;20057;-69
2022/10/01 04:56:48;;;;;;;18.95;13.30;;;9.90;99.90;;;;;;5015416;28;20038;-69
2022/10/01 04:59:13;;;;;;;17.40;13.20;;;9.90;99.90;;;;;;5016197;28;20034;-69
2022/10/01 05:01:40;;;;;;;21.30;14.40;;;9.90;99.90;;;;;;5015878;28;20034;-69
2022/10/01 05:04:07;;;;;;;21.40;14.38;;;9.90;99.90;;;;;;5015884;28;20041;-69
2022/10/01 05:06:33;;;;;;;23.35;13.75;;;9.80;99.90;;;;;;5015614;28;20045;-69
2022/10/01 05:08:58;;;;;;;20.38;12.95;;;9.90;99.90;;;;;;5015229;28;20034;-69
2022/10/01 05:11:24;;;;;;;21.02;13.60;;;9.80;99.90;;;;;;5015694;28;20036;-69
2022/10/01 05:13:49;;;;;;;18.55;13.48;;;9.80;99.90;;;;;;5015595;28;20477;-69
2022/10/01 05:16:15;;;;;;;18.10;12.68;;;9.90;99.90;;;;;;5015509;28;20087;-69
2022/10/01 05:18:41;;;;;;;22.77;12.73;;;9.80;99.90;;;;;;5015525;28;20077;-69
2022/10/01 05:21:07;;;;;;;17.38;11.93;;;9.80;99.90;;;;;;5014965;28;20382;-69
2022/10/01 05:23:33;;;;;;;17.00;12.18;;;9.80;99.90;;;;;;5015399;28;20025;-69
2022/10/01 05:25:59;;;;;;;22.42;12.48;;;9.80;99.90;;;;;;5015342;28;20025;-69
2022/10/01 05:28:26;;;;;;;20.70;12.18;;;9.80;99.90;;;;;;5015299;28;20097;-69
2022/10/01 05:30:52;;;;;;;20.15;12.48;;;9.80;99.90;;;;;;5015130;28;20030;-69
2022/10/01 05:33:18;;;;;;;16.02;11.75;;;9.80;99.90;;;;;;5015421;28;20033;-69
2022/10/01 05:35:43;;;;;;;27.88;12.80;;;9.80;99.90;;;;;;5014558;28;20145;-69
2022/10/01 05:38:09;;;;;;;19.30;11.65;;;9.90;99.90;;;;;;5014994;28;20474;-69
2022/10/01 05:40:35;;;;;;;15.50;12.02;;;9.80;99.90;;;;;;5014939;28;20385;-70
2022/10/01 05:43:01;;;;;;;25.77;12.70;;;9.90;99.90;;;;;;5014974;28;20360;-69
2022/10/01 05:45:28;;;;;;;19.23;13.35;;;9.90;99.90;;;;;;5020832;28;20021;-70
2022/10/01 05:47:58;;;;;;;21.20;12.35;;;9.90;99.90;;;;;;5031125;28;20497;-70
2022/10/01 05:50:24;;;;;;;23.65;12.80;;;9.90;99.90;;;;;;5031203;28;20030;-70
2022/10/01 05:52:52;;;;;;;16.83;11.77;;;9.90;99.90;;;;;;5022202;28;20021;-70
2022/10/01 05:55:18;;;;;;;16.55;12.05;;;9.90;99.90;;;;;;5025304;28;20014;-70
2022/10/01 05:57:43;;;;;;;21.80;12.60;;;9.90;99.90;;;;;;5023663;28;20022;-69
2022/10/01 06:00:11;;;;;;;19.08;12.02;;;9.90;99.90;;;;;;5028030;28;20037;-69
2022/10/01 06:02:37;;;;;;;26.40;12.05;;;9.80;99.90;;;;;;5027350;28;20088;-69
2022/10/01 06:05:03;;;;;;;17.23;13.13;;;9.90;99.90;;;;;;5021913;28;20041;-69
2022/10/01 06:07:31;;;;;;;25.25;13.40;;;9.80;99.90;;;;;;5024428;28;20128;-69
2022/10/01 06:09:56;;;;;;;17.50;12.15;;;9.90;99.90;;;;;;5024121;28;20392;-69
2022/10/01 06:12:22;;;;;;;16.40;11.25;;;9.80;99.90;;;;;;5026700;28;20029;-69
2022/10/01 06:14:47;;;;;;;20.90;11.30;;;9.80;99.90;;;;;;5030802;28;20489;-69
2022/10/01 06:17:13;;;;;;;17.10;11.38;;;9.80;99.90;;;;;;5022194;28;20036;-69
2022/10/01 06:19:38;;;;;;;17.45;11.18;;;9.90;99.90;;;;;;5024971;28;20030;-69
2022/10/01 06:22:04;;;;;;;19.83;13.20;;;9.80;99.90;;;;;;5025689;28;20037;-70
2022/10/01 06:24:30;;;;;;;18.23;11.80;;;9.80;99.90;;;;;;5014181;28;20512;-70
2022/10/01 06:26:56;;;;;;;17.25;11.98;;;9.80;99.90;;;;;;5027700;28;20105;-70
2022/10/01 06:29:22;;;;;;;21.02;12.15;;;9.80;99.90;;;;;;5013780;28;20247;-70
2022/10/01 06:31:47;;;;;;;14.18;10.85;;;9.90;99.90;;;;;;5014061;28;20029;-70
2022/10/01 06:34:13;;;;;;;13.55;10.18;;;9.80;99.90;;;;;;5014250;28;20526;-70
2022/10/01 06:36:38;;;;;;;15.50;10.23;;;9.90;99.90;;;;;;5025911;28;20032;-70
2022/10/01 06:39:04;;;;;;;12.02;9.38;;;9.80;99.90;;;;;;5015292;28;20097;-70
2022/10/01 06:41:29;;;;;;;15.57;9.85;;;9.80;99.90;;;;;;5013974;28;20036;-70
2022/10/01 06:43:55;;;;;;;14.15;9.80;;;9.80;99.90;;;;;;5013875;28;20466;-70
2022/10/01 06:46:20;;;;;;;12.20;9.25;;;9.90;99.90;;;;;;5020893;28;20022;-70
2022/10/01 06:48:46;;;;;;;15.00;9.48;;;9.80;99.90;;;;;;5017206;28;20022;-70
2022/10/01 06:51:11;;;;;;;11.45;8.30;;;9.90;99.90;;;;;;5013973;28;20037;-70
2022/10/01 06:53:37;;;;;;;20.00;9.50;;;9.80;99.90;;;;;;5027705;28;20378;-70
2022/10/01 06:56:05;;;;;;;12.23;8.43;;;9.80;99.90;;;;;;5013739;28;20029;-70
2022/10/01 06:58:31;;;;;;;14.20;8.77;;;9.90;99.90;;;;;;5013278;28;20030;-70
2022/10/01 07:00:58;;;;;;;9.25;8.05;;;9.80;99.90;;;;;;5013879;28;20470;-70
2022/10/01 07:03:24;;;;;;;9.68;7.50;;;9.90;99.90;;;;;;5013660;28;20492;-70
2022/10/01 07:05:50;;;;;;;10.05;7.47;;;9.90;99.90;;;;;;5013499;28;20113;-70
2022/10/01 07:08:16;;;;;;;8.35;7.05;;;9.90;99.90;;;;;;5013222;28;20071;-70
2022/10/01 07:10:43;;;;;;;10.90;8.35;;;10.00;99.90;;;;;;5013712;28;20014;-70
2022/10/01 07:13:11;;;;;;;14.20;7.13;;;9.90;99.90;;;;;;5013654;28;20026;-70
2022/10/01 07:15:36;;;;;;;10.20;7.75;;;9.90;99.90;;;;;;5013826;28;20025;-70
2022/10/01 07:18:02;;;;;;;9.00;6.85;;;9.90;99.90;;;;;;5015802;28;20042;-70
2022/10/01 07:20:29;;;;;;;8.27;6.65;;;10.00;99.90;;;;;;5017111;28;20028;-70
2022/10/01 07:22:58;;;;;;;10.50;7.03;;;9.90;99.90;;;;;;5017622;28;20018;-70
2022/10/01 07:25:25;;;;;;;12.52;7.35;;;9.90;99.90;;;;;;5017429;28;20034;-70
2022/10/01 07:28:00;;;;;;;8.43;6.80;;;10.00;99.90;;;;;;5017459;28;20057;-70
2022/10/01 07:30:26;;;;;;;9.95;6.97;;;10.00;99.90;;;;;;5017341;28;20084;-70
2022/10/01 07:32:53;;;;;;;8.82;7.75;;;10.00;99.90;;;;;;5016966;28;20026;-70
2022/10/01 07:35:19;;;;;;;8.90;7.38;;;9.90;99.90;;;;;;5017541;28;20108;-70
2022/10/01 07:37:49;;;;;;;11.20;8.20;;;10.00;99.90;;;;;;5017299;28;20047;-70
2022/10/01 07:40:15;;;;;;;11.55;8.07;;;10.00;99.90;;;;;;5017290;28;20018;-70
2022/10/01 07:42:42;;;;;;;12.88;7.30;;;10.00;99.90;;;;;;5016709;28;20030;-70
2022/10/01 07:45:08;;;;;;;9.90;8.35;;;10.00;99.90;;;;;;5035178;28;20022;-70
2022/10/01 07:47:34;;;;;;;11.00;8.60;;;10.00;99.90;;;;;;5020234;28;20030;-70
2022/10/01 07:49:59;;;;;;;14.68;8.45;;;10.00;99.90;;;;;;5017005;28;20025;-70
2022/10/01 07:52:25;;;;;;;9.73;8.07;;;10.00;99.90;;;;;;5019476;28;20022;-70
2022/10/01 07:54:50;;;;;;;11.02;8.55;;;10.00;99.90;;;;;;5035856;28;20092;-70
2022/10/01 07:57:16;;;;;;;9.38;8.30;;;10.10;99.90;;;;;;5036207;28;20040;-70
2022/10/01 07:59:42;;;;;;;12.73;8.63;;;10.10;99.90;;;;;;5037245;28;20506;-70
2022/10/01 08:02:15;;;;;;;9.75;7.32;;;10.10;99.90;;;;;;5036825;28;20022;-70
2022/10/01 08:07:25;;;;;;;15.50;8.57;;;10.20;99.90;;;;;;5036467;28;20075;-70
2022/10/01 08:09:50;;;;;;;11.02;7.68;;;10.20;99.90;;;;;;5027080;28;20026;-70
2022/10/01 08:12:18;;;;;;;11.68;7.95;;;10.20;99.90;;;;;;5017543;28;20033;-70
2022/10/01 08:14:46;;;;;;;11.00;7.38;;;10.30;99.90;;;;;;5017837;28;20022;-70
2022/10/01 08:17:12;;;;;;;7.85;7.05;;;10.30;99.90;;;;;;5017848;28;20534;-70
2022/10/01 08:19:38;;;;;;;7.78;6.55;;;10.30;99.90;;;;;;5017061;28;20033;-70
2022/10/01 08:22:06;;;;;;;8.40;6.65;;;10.30;99.90;;;;;;5015814;28;20084;-70
2022/10/01 08:24:33;;;;;;;8.23;6.43;;;10.30;99.90;;;;;;5016445;28;20021;-70
2022/10/01 08:26:59;;;;;;;10.43;7.45;;;10.30;99.90;;;;;;5016431;28;20025;-70
2022/10/01 08:29:25;;;;;;;8.15;6.15;;;10.30;99.90;;;;;;5015769;28;20072;-70
2022/10/01 08:31:51;;;;;;;7.72;6.63;;;10.40;99.90;;;;;;5016233;28;20022;-70
2022/10/01 08:34:16;;;;;;;10.52;6.90;;;10.40;99.90;;;;;;5016469;28;20038;-69
2022/10/01 08:36:42;;;;;;;9.73;5.90;;;10.50;99.90;;;;;;5015684;28;20040;-69
2022/10/01 08:39:08;;;;;;;8.23;6.18;;;10.60;99.90;;;;;;5016338;28;20080;-69
2022/10/01 08:41:52;;;;;;;8.63;5.75;;;10.60;99.90;;;;;;5016348;28;20088;-70
2022/10/01 08:44:20;;;;;;;;;;;10.60;99.90;;;;;;5016860;28;20022;-69
2022/10/01 08:46:48;;;;;;;6.68;5.97;;;10.50;99.90;;;;;;5015798;28;20361;-70
2022/10/01 08:49:33;;;;;;;6.72;5.50;;;10.50;99.90;;;;;;5014880;28;20034;-70
2022/10/01 08:52:24;;;;;;;6.80;5.10;;;10.60;99.90;;;;;;5016189;28;20029;-70
2022/10/01 08:55:01;;;;;;;6.53;5.78;;;10.60;99.90;;;;;;5016309;28;20030;-70
2022/10/01 08:57:42;;;;;;;11.35;6.10;;;10.60;99.90;;;;;;5016549;28;20482;-70
2022/10/01 09:00:13;;;;;;;7.35;5.55;;;10.60;99.90;;;;;;5015557;28;20029;-71
2022/10/01 09:02:41;;;;;;;8.93;6.25;;;10.70;99.90;;;;;;5015789;28;20072;-71
2022/10/01 09:05:19;;;;;;;10.60;6.50;;;10.70;99.90;;;;;;5016265;28;20040;-71
2022/10/01 09:07:50;;;;;;;10.52;6.95;;;10.60;99.90;;;;;;5016121;28;20034;-71
2022/10/01 09:10:34;;;;;;;7.43;6.28;;;10.70;99.90;;;;;;5015313;28;20034;-71
2022/10/01 09:13:24;;;;;;;9.25;6.10;;;10.70;99.90;;;;;;5027640;28;20034;-71
2022/10/01 09:16:17;;;;;;;8.68;6.35;;;10.80;99.90;;;;;;5035537;28;20496;-71
2022/10/01 09:19:17;;;;;;;7.88;5.93;;;10.90;99.90;;;;;;5035642;28;20393;-71
2022/10/01 09:21:54;;;;;;;13.00;7.03;;;10.80;99.90;;;;;;5033998;28;20039;-71
2022/10/01 09:24:29;;;;;;;9.55;6.40;;;10.90;99.90;;;;;;5033773;28;20386;-70
2022/10/01 09:26:54;;;;;;;10.90;6.80;;;11.00;99.90;;;;;;5035291;28;20378;-70
2022/10/01 09:29:33;;;;;;;15.90;7.55;;;11.00;99.90;;;;;;5035238;28;20029;-70
2022/10/01 09:32:02;;;;;;;14.57;7.22;;;11.00;99.90;;;;;;5035264;28;20025;-70
2022/10/01 09:34:38;;;;;;;15.65;7.68;;;11.10;99.90;;;;;;5020211;28;20026;-70
2022/10/01 09:37:21;;;;;;;16.88;8.95;;;11.20;99.90;;;;;;5014991;28;20030;-70
2022/10/01 09:40:18;;;;;;;29.20;9.20;;;11.40;99.90;;;;;;5014146;28;20037;-70
2022/10/01 09:42:43;;;;;;;15.68;7.55;;;11.50;99.90;;;;;;5014994;28;20393;-70
2022/10/01 09:45:19;;;;;;;16.45;7.53;;;11.60;99.90;;;;;;5015005;28;20071;-70
2022/10/01 09:47:49;;;;;;;21.10;8.10;;;11.70;99.90;;;;;;5014376;28;20061;-70
2022/10/01 09:50:20;;;;;;;29.80;8.93;;;11.90;99.90;;;;;;5015255;28;20078;-70
2022/10/01 09:52:49;;;;;;;22.52;7.38;;;12.10;99.90;;;;;;5015046;28;20474;-70
2022/10/01 09:55:17;;;;;;;33.55;6.65;;;12.20;99.90;;;;;;5014793;28;20026;-70
2022/10/01 09:58:01;;;;;;;36.75;7.22;;;12.40;99.90;;;;;;5014260;28;20033;-70
2022/10/01 10:00:27;;;;;;;38.58;6.00;;;12.50;99.90;;;;;;5032172;28;20021;-70
2022/10/01 10:02:54;;;;;;;35.05;7.35;;;12.70;99.90;;;;;;5014951;28;20056;-70
2022/10/01 10:05:23;;;;;;;41.83;6.00;;;12.90;99.90;;;;;;5014416;28;20394;-70
2022/10/01 10:07:56;;;;;;;40.47;7.38;;;13.00;99.90;;;;;;5014597;28;20497;-69
2022/10/01 10:10:34;;;;;;;39.75;6.40;;;13.20;99.90;;;;;;5014149;28;20112;-69
2022/10/01 10:13:16;;;;;;;37.70;6.15;;;13.20;99.90;;;;;;5014747;28;20017;-70
2022/10/01 10:15:49;;;;;;;53.90;5.53;;;13.30;99.90;;;;;;5028315;28;20071;-70
2022/10/01 10:18:16;;;;;;;46.10;8.45;;;13.50;99.90;;;;;;5014679;28;20101;-69
2022/10/01 10:20:44;;;;;;;39.95;6.65;;;13.70;99.90;;;;;;5028113;28;20030;-69
2022/10/01 10:23:21;;;;;;;38.58;4.78;;;13.90;99.90;;;;;;5013774;28;20025;-70
2022/10/01 10:26:01;;;;;;;27.00;3.92;;;13.90;99.90;;;;;;5014250;28;20121;-70
2022/10/01 10:28:38;;;;;;;34.60;5.38;;;13.90;99.90;;;;;;5014312;28;20024;-70
2022/10/01 10:31:22;;;;;;;35.38;4.22;;;13.90;99.90;;;;;;5014592;28;20050;-70
2022/10/01 10:34:12;;;;;;;27.02;4.03;;;14.00;99.90;;;;;;5014422;28;20061;-69
2022/10/01 10:36:40;;;;;;;27.08;4.30;;;14.00;99.90;;;;;;5013521;28;20037;-70
2022/10/01 10:39:19;;;;;;;38.58;4.93;;;14.20;99.90;;;;;;5014975;28;20496;-70
2022/10/01 10:41:47;;;;;;;22.25;3.30;;;14.40;99.90;;;;;;5015261;28;20029;-70
2022/10/01 10:44:20;;;;;;;20.08;3.30;;;14.60;99.90;;;;;;5014734;28;20030;-70
2022/10/01 10:46:46;;;;;;;28.90;3.47;;;14.80;99.90;;;;;;5014192;28;20030;-70
2022/10/01 10:49:26;;;;;;;19.52;3.90;;;14.80;99.90;;;;;;5013609;28;20073;-70
2022/10/01 10:51:54;;;;;;;26.27;5.60;;;14.90;99.90;;;;;;5013834;28;20018;-70
2022/10/01 10:54:30;;;;;;;22.05;5.68;;;15.00;99.90;;;;;;5013919;28;20036;-70
2022/10/01 10:57:01;;;;;;;43.30;11.60;;;15.20;99.90;;;;;;5014139;28;20080;-70
2022/10/01 10:59:28;;;;;;;38.33;5.80;;;15.40;99.90;;;;;;5013789;28;20061;-69
2022/10/01 11:01:54;;;;;;;29.02;6.32;;;15.40;99.90;;;;;;5013679;28;20521;-70
2022/10/01 11:04:26;;;;;;;19.10;3.35;;;15.60;99.90;;;;;;5013708;28;20014;-69
2022/10/01 11:07:03;;;;;;;18.90;3.43;;;16.00;99.90;;;;;;5013570;28;20401;-69
2022/10/01 11:09:42;;;;;;;21.45;3.10;;;16.10;99.90;;;;;;5013667;28;20586;-69
2022/10/01 11:12:17;;;;;;;21.13;3.10;;;15.90;99.90;;;;;;5013963;28;20054;-69
2022/10/01 11:14:49;;;;;;;15.35;2.13;;;15.90;99.90;;;;;;5013067;28;20505;-69
2022/10/01 11:17:26;;;;;;;16.02;2.70;;;16.00;99.90;;;;;;5013571;28;20078;-69
2022/10/01 11:20:35;;;;;;;6.20;1.45;;;16.20;99.90;;;;;;5013605;28;20060;-69
2022/10/01 11:23:52;;;;;;;12.40;1.67;;;16.50;99.90;;;;;;4952668;29;20122;-69
2022/10/01 11:26:48;;;;;;;10.13;2.20;;;16.50;99.90;;;;;;4937239;29;20062;-69
2022/10/01 11:29:44;;;;;;;8.65;1.58;;;16.60;99.90;;;;;;5013821;28;20018;-69
2022/10/01 11:32:36;;;;;;;9.48;1.33;;;16.70;99.90;;;;;;5012949;28;20072;-69
2022/10/01 11:35:54;;;;;;;10.77;1.85;;;17.10;99.90;;;;;;5013696;28;20038;-69
2022/10/01 11:38:45;;;;;;;19.25;2.95;;;17.50;99.90;;;;;;5000154;28;20104;-69
2022/10/01 11:41:42;;;;;;;11.88;2.05;;;17.30;99.90;;;;;;5013350;28;20021;-68
2022/10/01 11:44:33;;;;;;;3.45;1.33;;;17.30;99.90;;;;;;5013120;28;20036;-69
2022/10/01 11:47:32;;;;;;;15.60;1.80;;;17.30;99.90;;;;;;5006475;28;20152;-68
2022/10/01 11:50:27;;;;;;;9.30;1.38;;;17.40;99.90;;;;;;5012090;28;20026;-68
2022/10/01 11:53:10;;;;;;;8.55;1.50;;;17.80;99.90;;;;;;5012805;28;20092;-68
2022/10/01 11:58:51;;;;;;;10.02;1.42;;;18.30;99.90;;;;;;5013764;28;20435;-69
2022/10/01 12:01:19;;;;;;;14.88;2.38;;;18.40;99.90;;;;;;5012694;28;20482;-69
2022/10/01 12:04:20;;;;;;;9.73;1.20;;;18.10;99.90;;;;;;5014689;28;20040;-69
2022/10/01 12:07:12;;;;;;;8.45;1.77;;;18.20;99.90;;;;;;5012300;28;20110;-69
2022/10/01 12:10:02;;;;;;;13.02;2.38;;;18.20;99.90;;;;;;5016326;28;20045;-69
2022/10/01 12:12:34;;;;;;;15.63;2.42;;;18.20;99.90;;;;;;5017041;28;20044;-68
2022/10/01 12:15:25;;;;;;;20.42;3.20;;;17.80;99.90;;;;;;5016313;28;20037;-68
2022/10/01 12:17:54;;;;;;;21.67;3.90;;;17.20;99.90;;;;;;5016697;28;20390;-68
2022/10/01 12:20:23;;;;;;;27.83;3.75;;;16.80;99.90;;;;;;5016778;28;20025;-67
2022/10/01 12:22:49;;;;;;;28.27;4.15;;;16.50;99.90;;;;;;5016446;28;20034;-67
2022/10/01 12:25:15;;;;;;;23.42;4.20;;;16.60;99.90;;;;;;5016004;28;20469;-68
2022/10/01 12:28:09;;;;;;;45.15;4.85;;;16.70;99.90;;;;;;5016407;28;20033;-68
2022/10/01 12:30:48;;;;;;;27.35;4.00;;;16.30;99.90;;;;;;5016623;28;20033;-68
2022/10/01 12:33:44;;;;;;;25.73;4.50;;;16.20;99.90;;;;;;5016523;28;20478;-68
2022/10/01 12:36:35;;;;;;;25.98;3.70;;;16.40;99.90;;;;;;5016168;28;20025;-68
2022/10/01 12:39:13;;;;;;;26.60;4.47;;;16.40;99.90;;;;;;5016298;28;20021;-68
2022/10/01 12:41:56;;;;;;;32.13;5.18;;;16.00;99.90;;;;;;5016172;28;20505;-68
2022/10/01 12:44:48;;;;;;;22.00;4.13;;;15.90;99.90;;;;;;5016471;28;20374;-68
2022/10/01 12:47:44;;;;;;;35.90;3.88;;;16.30;99.90;;;;;;5015994;28;20076;-68
2022/10/01 12:50:27;;;;;;;34.45;4.13;;;16.20;99.90;;;;;;5016061;28;20060;-67
2022/10/01 12:53:22;;;;;;;29.58;4.18;;;16.30;99.90;;;;;;5016010;28;20105;-67
2022/10/01 12:56:01;;;;;;;28.63;4.15;;;16.00;99.90;;;;;;5015975;28;20088;-67
2022/10/01 12:58:45;;;;;;;31.13;4.60;;;15.80;99.90;;;;;;5015485;28;20021;-68
2022/10/01 13:01:34;;;;;;;28.50;4.45;;;15.80;99.90;;;;;;5015924;28;20088;-67
2022/10/01 13:04:22;;;;;;;29.45;4.80;;;15.70;99.90;;;;;;5014577;28;20053;-67
2022/10/01 13:07:06;;;;;;;17.80;3.50;;;15.70;99.90;;;;;;5016794;28;20041;-68